Impacts TAF Board
For situational awareness. Not to be used for flight planning purposes.
IDs:

KSAT - San Antonio Intl, TX, US

Issued at 1318 UTC 17 Nov 2019
Updated at 1454 UTC 17 Nov 2019
Potential Impact None Slight Moderate High
Time1451Z 17/15Z 17/16Z 17/17Z 17/18Z 17/19Z 17/20Z 17/21Z 17/22Z 17/23Z 18/00Z 18/01Z 18/02Z 18/03Z>>
Type OBS PRVL PRVL PRVL PRVL PRVL PRVL PRVL PRVL PRVL PRVL PRVL PRVL PRVL
VIS 10 >6 >6 >6 >6 >6 >6 >6 >6 >6 >6 >6 >6 >6
CIG 27 15 15 15 15 -- -- -- -- -- -- -- -- --
Cover OVC BKN BKN BKN BKN SCT SCT SCT SCT SCT SCT SCT SCT SCT
FltCat MVFR MVFR MVFR MVFR MVFR VFR VFR VFR VFR VFR VFR VFR VFR VFR
WX -- -- -- -- -- -- -- -- -- -- -- -- -- --
WDir VRB 190 190 190 190 220 220 220 220 220 220 220 220 220
WSpd 0 3 3 3 3 4 4 4 4 4 4 4 4 4
WGst -- -- -- -- -- -- -- -- -- -- -- -- -- --
R04/22
XWnd VRB -2 -2 -2 -2 -0 -0 -0 -0 -0 -0 -0 -0 -0
HWnd VRB -3 -3 -3 -3 -4 -4 -4 -4 -4 -4 -4 -4 -4
R12/30
XWnd VRB -3 -3 -3 -3 -4 -4 -4 -4 -4 -4 -4 -4 -4
HWnd VRB 2 2 2 2 0 0 0 0 0 0 0 0 0
Raw TAF
KSAT 171318Z 1713/1818 23005KT P6SM BKN025
  FM171500 19003KT P6SM BKN015
  FM171900 22004KT P6SM SCT035
  FM180400 34004KT P6SM SCT250


Raw METAR
KSAT 171451Z 00000KT 10SM BKN027 OVC250 11/07 A3008 RMK AO2 SLP177 BKN027 V SCT T01110072 51012
KSAT 171430Z 00000KT 10SM BKN027 OVC250 11/07 A3008 RMK AO2 T01060067
KSAT 171403Z 00000KT 10SM SCT026 BKN250 09/06 A3008 RMK AO2 T00940061
KSAT 171351Z 00000KT 7SM BKN024 BKN250 08/06 A3008 RMK AO2 SLP176 BKN024 V SCT T00830056
KSAT 171304Z 30003KT 10SM BKN023 BKN250 07/04 A3007 RMK AO2 T00670044
KSAT 171251Z 31004KT 10SM SCT024 BKN250 06/04 A3006 RMK AO2 SLP171 T00610039
KSAT 171151Z 00000KT 10SM BKN250 06/04 A3005 RMK AO2 SLP166 T00610039 10111 20061 58002

METAR Board
Radar Display
Forecast Discussion
For situational awareness. Not to be used for flight planning purposes.